createdAt,value
2019-01-19T09:46:57.551Z,10.10
2019-01-19T09:49:23.753Z,9.50
2019-01-19T09:51:49.944Z,9.50
2019-01-19T09:54:16.154Z,9.27
2019-01-19T09:56:42.356Z,9.37
2019-01-19T09:59:08.566Z,9.10
2019-01-19T10:01:34.755Z,8.30
2019-01-19T10:04:00.965Z,9.57
2019-01-19T10:06:27.162Z,8.37
2019-01-19T10:08:53.366Z,8.87
2019-01-19T10:11:19.556Z,9.90
2019-01-19T10:13:46.055Z,9.00
2019-01-19T10:16:12.247Z,8.97
2019-01-19T10:18:38.449Z,9.10
2019-01-19T10:21:05.135Z,8.50
2019-01-19T10:23:31.340Z,9.93
2019-01-19T10:25:57.530Z,8.30
2019-01-19T10:28:23.744Z,8.60
2019-01-19T10:30:51.459Z,7.97
2019-01-19T10:33:19.327Z,8.83
2019-01-19T10:35:45.566Z,8.57
2019-01-19T10:38:11.759Z,9.40
2019-01-19T10:40:37.966Z,9.83
2019-01-19T10:43:04.162Z,8.70
2019-01-19T10:45:30.458Z,9.83
2019-01-19T10:47:56.856Z,9.40
2019-01-19T10:50:23.169Z,10.07
2019-01-19T10:52:49.457Z,9.47
2019-01-19T10:55:21.169Z,9.40
2019-01-19T10:57:47.481Z,9.53
2019-01-19T11:00:24.292Z,7.43
2019-01-19T11:02:50.684Z,6.40
2019-01-19T11:05:16.882Z,6.83
2019-01-19T11:07:44.976Z,6.70
2019-01-19T11:10:21.515Z,6.83
2019-01-19T11:12:48.004Z,7.43
2019-01-19T11:15:16.808Z,6.20
2019-01-19T11:17:43.107Z,6.83
2019-01-19T11:20:14.116Z,6.53
2019-01-19T11:22:40.294Z,6.57
2019-01-19T11:25:08.404Z,6.90
2019-01-19T11:27:34.598Z,5.97
2019-01-19T11:30:00.796Z,7.90
2019-01-19T11:32:26.984Z,6.60
2019-01-19T11:34:53.197Z,6.93
2019-01-19T11:37:19.492Z,5.93
2019-01-19T11:39:45.681Z,6.03
2019-01-19T11:42:11.873Z,6.40
2019-01-19T11:44:38.069Z,6.17
2019-01-19T11:47:04.261Z,5.90
2019-01-19T11:49:30.470Z,5.47
2019-01-19T11:51:56.654Z,5.57
2019-01-19T11:54:22.950Z,6.20
2019-01-19T11:56:49.154Z,5.60
2019-01-19T11:59:15.650Z,5.90
2019-01-19T12:01:41.835Z,6.00
2019-01-19T12:04:08.031Z,6.23
2019-01-19T12:06:34.227Z,6.80
2019-01-19T12:09:00.426Z,6.07
2019-01-19T12:11:26.627Z,6.83
2019-01-19T12:13:52.817Z,6.57
2019-01-19T12:16:19.011Z,7.00
2019-01-19T12:18:45.202Z,7.13
2019-01-19T12:21:11.418Z,6.57
2019-01-19T12:23:37.698Z,6.07
2019-01-19T12:26:03.901Z,7.03
2019-01-19T12:28:30.097Z,6.70
2019-01-19T12:30:56.297Z,7.00
2019-01-19T12:33:22.489Z,5.30
2019-01-19T12:35:48.688Z,6.23
2019-01-19T12:38:14.875Z,5.93
2019-01-19T12:40:41.070Z,6.40
2019-01-19T12:43:12.368Z,6.30
2019-01-19T12:45:42.869Z,5.83
2019-01-19T12:48:09.159Z,5.83
2019-01-19T12:50:35.454Z,6.20
2019-01-19T12:53:01.638Z,6.33
2019-01-19T12:55:27.849Z,5.73
2019-01-19T12:57:54.041Z,5.50
2019-01-19T13:00:25.045Z,5.47
2019-01-19T13:02:51.737Z,5.50
2019-01-19T13:05:33.153Z,5.90
2019-01-19T13:07:59.481Z,6.43
2019-01-19T13:10:34.266Z,5.73
2019-01-19T13:13:02.263Z,5.73
2019-01-19T13:16:07.895Z,5.00
2019-01-19T13:18:39.787Z,5.50
2019-01-19T13:21:31.677Z,5.53
2019-01-19T13:24:26.089Z,5.13
2019-01-19T13:27:09.810Z,4.80
2019-01-19T13:29:50.577Z,5.30
2019-01-19T13:32:43.202Z,5.67
2019-01-19T13:35:53.222Z,5.80
2019-01-19T13:38:30.895Z,4.80
2019-01-19T13:41:32.285Z,4.73
2019-01-19T13:44:32.290Z,4.93
2019-01-19T13:47:15.442Z,5.20
2019-01-19T13:50:13.254Z,5.27
2019-01-19T13:53:26.481Z,5.30
2019-01-19T13:56:36.985Z,5.30
2019-01-19T13:59:20.581Z,4.70
2019-01-19T14:02:19.508Z,4.63
2019-01-19T14:05:28.431Z,5.17
2019-01-19T14:08:49.725Z,4.73
2019-01-19T14:11:45.529Z,5.17
2019-01-19T14:14:29.800Z,4.73
2019-01-19T14:17:30.717Z,5.33
2019-01-19T14:20:11.601Z,4.50
2019-01-19T14:23:03.865Z,4.30
2019-01-19T14:25:44.640Z,3.57
2019-01-19T14:28:27.620Z,4.20
2019-01-19T14:31:08.395Z,3.50
2019-01-19T14:33:46.354Z,4.07
2019-01-19T14:36:33.062Z,3.60
2019-01-19T14:39:24.406Z,4.27
2019-01-19T14:42:05.132Z,3.37
2019-01-19T14:45:10.262Z,3.60
2019-01-19T14:48:39.215Z,3.40
2019-01-19T14:51:34.278Z,3.40
2019-01-19T14:55:08.972Z,4.00
2019-01-19T14:57:49.688Z,3.33
2019-01-19T15:00:45.164Z,4.33
2019-01-19T15:03:32.129Z,5.07
2019-01-19T15:06:24.645Z,5.70
2019-01-19T15:09:07.876Z,5.30
2019-01-19T15:11:59.587Z,5.63
2019-01-19T15:15:04.830Z,5.97
2019-01-19T15:18:12.850Z,7.40
2019-01-19T15:20:53.566Z,7.27
2019-01-19T15:23:40.670Z,7.13
2019-01-19T15:26:15.342Z,7.40
2019-01-19T15:28:53.217Z,7.80
2019-01-19T15:31:25.140Z,9.30
2019-01-19T15:34:11.599Z,9.87
2019-01-19T15:37:06.749Z,7.63
2019-01-19T15:39:59.802Z,8.17
2019-01-19T15:42:39.865Z,7.87
2019-01-19T15:45:32.691Z,9.13
2019-01-19T15:48:26.676Z,9.00
2019-01-19T15:51:10.389Z,7.30
2019-01-19T15:54:03.586Z,6.67
2019-01-19T15:56:55.947Z,6.83
2019-01-19T15:59:33.450Z,7.67
2019-01-19T16:02:35.901Z,7.93
2019-01-19T16:05:39.643Z,8.77
2019-01-19T16:08:32.647Z,8.60
2019-01-19T16:11:24.163Z,8.87
2019-01-19T16:14:25.254Z,9.50
2019-01-19T16:17:14.681Z,8.90
2019-01-19T16:20:12.078Z,10.37
2019-01-19T16:22:50.283Z,8.70
2019-01-19T16:25:36.403Z,9.43
2019-01-19T16:28:25.145Z,9.57
2019-01-19T16:31:27.689Z,9.80
2019-01-19T16:34:19.498Z,9.37
2019-01-19T16:36:57.387Z,10.00
2019-01-19T16:39:54.892Z,10.60
2019-01-19T16:42:53.534Z,9.57
2019-01-19T16:45:43.654Z,10.13
2019-01-19T16:48:24.135Z,10.50
2019-01-19T16:50:56.038Z,9.83
2019-01-19T16:53:50.829Z,10.80
2019-01-19T16:56:54.461Z,9.83
2019-01-19T16:59:26.375Z,10.77
2019-01-19T17:02:25.857Z,10.97
2019-01-19T17:05:00.736Z,10.90
2019-01-19T17:08:01.521Z,12.37
2019-01-19T17:10:51.646Z,11.27
2019-01-19T17:13:29.006Z,11.30
2019-01-19T17:16:15.165Z,12.30
2019-01-19T17:18:49.975Z,12.40
2019-01-19T17:21:59.985Z,12.03
2019-01-19T17:24:51.362Z,12.20
2019-01-19T17:27:44.306Z,11.50
2019-01-19T17:30:28.581Z,12.17
2019-01-19T17:33:20.088Z,13.27
2019-01-19T17:35:54.759Z,13.30
2019-01-19T17:38:37.891Z,13.07
2019-01-19T17:41:32.481Z,13.27
2019-01-19T17:44:33.668Z,14.17
2019-01-19T17:47:23.544Z,12.27
2019-01-19T17:50:06.783Z,14.00
2019-01-19T17:52:44.791Z,13.37
2019-01-19T17:55:21.724Z,13.13
2019-01-19T17:58:14.052Z,12.70
2019-01-19T18:01:23.488Z,14.30
2019-01-19T18:03:58.134Z,12.87
2019-01-19T18:06:35.329Z,13.50
2019-01-19T18:09:39.677Z,13.30
2019-01-19T18:12:20.195Z,13.27
2019-01-19T18:14:52.103Z,13.67
2019-01-19T18:18:06.951Z,14.47
2019-01-19T18:20:41.994Z,13.70
2019-01-19T18:23:16.672Z,14.27
2019-01-19T18:25:51.538Z,13.70
2019-01-19T18:28:29.866Z,15.33
2019-01-19T18:31:42.423Z,14.83
2019-01-19T18:34:34.447Z,14.83
2019-01-19T18:37:32.948Z,14.23
2019-01-19T18:40:13.844Z,13.60
2019-01-19T18:42:51.469Z,14.67
2019-01-19T18:45:26.143Z,14.77
2019-01-19T18:48:28.990Z,15.37
2019-01-19T18:51:21.580Z,15.17
2019-01-19T18:53:59.255Z,15.33
2019-01-19T18:56:48.709Z,15.37
2019-01-19T18:59:35.521Z,15.83
2019-01-19T19:02:19.782Z,16.17
2019-01-19T19:04:54.435Z,16.30
2019-01-19T19:07:32.418Z,15.93
2019-01-19T19:10:24.970Z,16.03
2019-01-19T19:13:08.515Z,14.70
2019-01-19T19:15:57.646Z,16.07
2019-01-19T19:18:57.772Z,15.07
2019-01-19T19:21:52.655Z,15.60
2019-01-19T19:24:47.114Z,14.33
2019-01-19T19:27:33.981Z,16.07
2019-01-19T19:30:15.163Z,14.70
2019-01-19T19:33:16.860Z,14.60
2019-01-19T19:36:23.197Z,14.93
2019-01-19T19:39:06.801Z,14.73
2019-01-19T19:42:02.156Z,14.50
2019-01-19T19:44:51.211Z,14.23
2019-01-19T19:47:55.968Z,14.50
2019-01-19T19:51:11.437Z,13.73
2019-01-19T19:53:37.635Z,14.53
2019-01-19T19:56:03.516Z,13.17
2019-01-19T19:58:30.647Z,13.60
2019-01-19T20:00:57.029Z,13.77
2019-01-19T20:03:23.229Z,14.03
2019-01-19T20:05:49.422Z,14.23
2019-01-19T20:08:15.620Z,14.57
2019-01-19T20:10:41.807Z,14.43
2019-01-19T20:13:08.263Z,13.07
2019-01-19T20:15:34.459Z,14.80
2019-01-19T20:18:00.650Z,14.77
2019-01-19T20:20:26.852Z,14.07
2019-01-19T20:22:53.053Z,14.50
2019-01-19T20:25:19.261Z,15.53
2019-01-19T20:27:46.327Z,16.33
2019-01-19T20:30:16.166Z,16.30
2019-01-19T20:32:42.355Z,16.20
2019-01-19T20:35:09.061Z,15.90
2019-01-19T20:37:35.250Z,15.83
2019-01-19T20:40:05.259Z,14.77
2019-01-19T20:42:31.452Z,14.97
2019-01-19T20:44:57.661Z,15.43
2019-01-19T20:47:23.853Z,14.97
2019-01-19T20:49:50.054Z,15.60
2019-01-19T20:52:16.252Z,15.30
2019-01-19T20:54:42.455Z,15.30
2019-01-19T20:57:08.660Z,15.23
2019-01-19T20:59:34.867Z,15.30
2019-01-19T21:02:01.308Z,15.30
2019-01-19T21:04:27.516Z,14.83
2019-01-19T21:06:53.707Z,17.23
2019-01-19T21:09:19.908Z,15.33
2019-01-19T21:11:46.100Z,15.67
2019-01-19T21:14:12.310Z,15.37
2019-01-19T21:16:38.510Z,15.37
2019-01-19T21:19:04.722Z,14.40
2019-01-19T21:21:30.925Z,15.23
2019-01-19T21:23:57.123Z,15.80
2019-01-19T21:26:23.318Z,15.03
2019-01-19T21:28:49.514Z,14.20
2019-01-19T21:31:15.711Z,16.53
2019-01-19T21:33:41.914Z,14.80
2019-01-19T21:36:08.103Z,13.63
2019-01-19T21:38:34.294Z,15.27
2019-01-19T21:41:00.496Z,15.10
2019-01-19T21:43:26.686Z,15.47
2019-01-19T21:45:52.890Z,15.83
2019-01-19T21:48:19.084Z,14.43
2019-01-19T21:50:45.287Z,15.20
2019-01-19T21:53:11.475Z,15.17
2019-01-19T21:55:37.677Z,14.27
2019-01-19T21:58:04.089Z,14.67
2019-01-19T22:00:30.299Z,14.77
2019-01-19T22:02:56.495Z,14.53
2019-01-19T22:05:22.700Z,14.47
2019-01-19T22:07:49.164Z,15.47
2019-01-19T22:10:19.171Z,15.27
2019-01-19T22:12:45.663Z,14.23
2019-01-19T22:15:15.279Z,15.07
2019-01-19T22:17:41.470Z,14.47
2019-01-19T22:20:11.278Z,13.67
2019-01-19T22:22:37.466Z,14.63
2019-01-19T22:25:05.868Z,15.47
2019-01-19T22:27:32.365Z,14.80
2019-01-19T22:29:58.569Z,14.40
2019-01-19T22:32:24.767Z,13.90
2019-01-19T22:34:50.991Z,13.90
2019-01-19T22:37:32.574Z,13.67
2019-01-19T22:40:21.631Z,13.10
2019-01-19T22:42:54.734Z,13.93
2019-01-19T22:45:50.745Z,14.33
2019-01-19T22:48:16.937Z,15.00
2019-01-19T22:50:43.522Z,13.70
2019-01-19T22:53:15.583Z,14.07
2019-01-19T22:55:45.197Z,13.80
2019-01-19T22:58:14.807Z,13.23
2019-01-19T23:01:02.989Z,13.87
2019-01-19T23:03:31.381Z,12.57
2019-01-19T23:05:57.963Z,13.60
2019-01-19T23:08:39.445Z,14.33
2019-01-19T23:11:05.855Z,13.60
2019-01-19T23:13:32.040Z,14.03
2019-01-19T23:15:58.233Z,13.77
2019-01-19T23:18:24.423Z,14.17
2019-01-19T23:20:50.629Z,13.53
2019-01-19T23:23:16.828Z,13.30
2019-01-19T23:25:43.032Z,13.17
2019-01-19T23:28:09.230Z,12.97
2019-01-19T23:30:58.230Z,13.50
2019-01-19T23:33:24.422Z,12.57
2019-01-19T23:35:50.625Z,14.50
2019-01-19T23:38:16.817Z,14.13
2019-01-19T23:40:43.020Z,13.67
2019-01-19T23:43:09.206Z,13.17
2019-01-19T23:45:35.414Z,13.17
2019-01-19T23:48:01.591Z,13.07
2019-01-19T23:50:27.790Z,13.13
2019-01-19T23:52:53.983Z,13.57
2019-01-19T23:55:20.183Z,13.20
2019-01-19T23:57:46.379Z,13.63
